sensor_id;sensor_type;location;lat;lon;timestamp;pressure;altitude;pressure_sealevel;temperature;humidity
21817;BME280;13247;47.504;7.382;2023-02-12T00:00:23;99237.19;;;0.30;100.00
21817;BME280;13247;47.504;7.382;2023-02-12T00:03:07;99231.34;;;0.12;100.00
21817;BME280;13247;47.504;7.382;2023-02-12T00:05:52;99241.69;;;0.13;100.00
21817;BME280;13247;47.504;7.382;2023-02-12T00:08:37;99237.09;;;0.27;100.00
21817;BME280;13247;47.504;7.382;2023-02-12T00:11:29;99241.97;;;-0.02;100.00
21817;BME280;13247;47.504;7.382;2023-02-12T00:14:14;99235.13;;;-0.01;100.00
21817;BME280;13247;47.504;7.382;2023-02-12T00:16:58;99249.97;;;-0.16;100.00
21817;BME280;13247;47.504;7.382;2023-02-12T00:19:43;99239.44;;;0.21;100.00
21817;BME280;13247;47.504;7.382;2023-02-12T00:22:28;99239.25;;;0.16;100.00
21817;BME280;13247;47.504;7.382;2023-02-12T00:25:13;99237.25;;;-0.12;100.00
21817;BME280;13247;47.504;7.382;2023-02-12T00:27:58;99227.75;;;-0.13;100.00
21817;BME280;13247;47.504;7.382;2023-02-12T00:30:43;99221.75;;;-0.13;100.00
21817;BME280;13247;47.504;7.382;2023-02-12T00:33:27;99224.44;;;-0.51;100.00
21817;BME280;13247;47.504;7.382;2023-02-12T00:36:15;99226.38;;;-0.46;100.00
21817;BME280;13247;47.504;7.382;2023-02-12T00:39:00;99217.66;;;-0.29;100.00
21817;BME280;13247;47.504;7.382;2023-02-12T00:41:45;99221.13;;;-0.28;100.00
21817;BME280;13247;47.504;7.382;2023-02-12T00:44:30;99216.88;;;-0.06;100.00
21817;BME280;13247;47.504;7.382;2023-02-12T00:47:14;99218.94;;;0.03;100.00
21817;BME280;13247;47.504;7.382;2023-02-12T00:50:00;99216.75;;;0.12;100.00
21817;BME280;13247;47.504;7.382;2023-02-12T00:52:44;99223.47;;;0.09;100.00
21817;BME280;13247;47.504;7.382;2023-02-12T00:55:29;99230.94;;;0.23;100.00
21817;BME280;13247;47.504;7.382;2023-02-12T00:58:16;99224.06;;;0.24;100.00
21817;BME280;13247;47.504;7.382;2023-02-12T01:01:01;99212.53;;;0.14;100.00
21817;BME280;13247;47.504;7.382;2023-02-12T01:03:46;99198.47;;;0.06;100.00
21817;BME280;13247;47.504;7.382;2023-02-12T01:06:31;99214.75;;;-0.16;100.00
21817;BME280;13247;47.504;7.382;2023-02-12T01:09:15;99220.84;;;-0.14;100.00
21817;BME280;13247;47.504;7.382;2023-02-12T01:12:00;99219.47;;;-0.06;100.00
21817;BME280;13247;47.504;7.382;2023-02-12T01:14:44;99226.06;;;-0.12;100.00
21817;BME280;13247;47.504;7.382;2023-02-12T01:17:29;99228.41;;;-0.18;100.00
21817;BME280;13247;47.504;7.382;2023-02-12T01:20:18;99231.03;;;-0.37;100.00
21817;BME280;13247;47.504;7.382;2023-02-12T01:23:02;99220.91;;;-0.12;100.00
21817;BME280;13247;47.504;7.382;2023-02-12T01:25:50;99227.94;;;-0.08;100.00
21817;BME280;13247;47.504;7.382;2023-02-12T01:28:35;99237.22;;;-0.13;100.00
21817;BME280;13247;47.504;7.382;2023-02-12T01:31:23;99231.31;;;-0.11;100.00
21817;BME280;13247;47.504;7.382;2023-02-12T01:34:10;99231.22;;;-0.12;100.00
21817;BME280;13247;47.504;7.382;2023-02-12T01:36:55;99226.19;;;-0.09;100.00
21817;BME280;13247;47.504;7.382;2023-02-12T01:39:39;99222.16;;;-0.23;100.00
21817;BME280;13247;47.504;7.382;2023-02-12T01:42:24;99235.19;;;-0.20;100.00
21817;BME280;13247;47.504;7.382;2023-02-12T01:47:59;99231.38;;;-0.30;100.00
21817;BME280;13247;47.504;7.382;2023-02-12T01:50:45;99217.31;;;-0.57;100.00
21817;BME280;13247;47.504;7.382;2023-02-12T01:53:41;99230.97;;;-0.59;100.00
21817;BME280;13247;47.504;7.382;2023-02-12T01:56:27;99213.44;;;-0.47;100.00
21817;BME280;13247;47.504;7.382;2023-02-12T01:59:12;99203.88;;;-0.29;100.00
21817;BME280;13247;47.504;7.382;2023-02-12T02:01:57;99213.63;;;-0.22;100.00
21817;BME280;13247;47.504;7.382;2023-02-12T02:04:53;99201.03;;;-0.15;100.00
21817;BME280;13247;47.504;7.382;2023-02-12T02:07:40;99207.13;;;-0.13;100.00
21817;BME280;13247;47.504;7.382;2023-02-12T02:10:28;99206.19;;;-0.15;100.00
21817;BME280;13247;47.504;7.382;2023-02-12T02:13:13;99209.78;;;-0.11;100.00
21817;BME280;13247;47.504;7.382;2023-02-12T02:16:27;99194.44;;;-0.08;100.00
21817;BME280;13247;47.504;7.382;2023-02-12T02:43:46;99187.22;;;-0.58;100.00
21817;BME280;13247;47.504;7.382;2023-02-12T02:46:39;99198.38;;;-0.78;100.00
21817;BME280;13247;47.504;7.382;2023-02-12T02:49:35;99200.84;;;-0.81;100.00
21817;BME280;13247;47.504;7.382;2023-02-12T02:52:30;99191.81;;;-0.91;100.00
21817;BME280;13247;47.504;7.382;2023-02-12T02:55:19;99183.56;;;-0.84;100.00
21817;BME280;13247;47.504;7.382;2023-02-12T02:58:15;99185.88;;;-0.90;100.00
21817;BME280;13247;47.504;7.382;2023-02-12T03:04:36;99181.38;;;-0.74;100.00
21817;BME280;13247;47.504;7.382;2023-02-12T03:07:27;99183.16;;;-0.93;100.00
21817;BME280;13247;47.504;7.382;2023-02-12T03:10:48;99182.69;;;-1.03;100.00
21817;BME280;13247;47.504;7.382;2023-02-12T03:13:53;99181.19;;;-0.98;100.00
21817;BME280;13247;47.504;7.382;2023-02-12T03:17:20;99183.25;;;-0.91;100.00
21817;BME280;13247;47.504;7.382;2023-02-12T03:20:05;99178.59;;;-0.79;100.00
21817;BME280;13247;47.504;7.382;2023-02-12T03:23:11;99186.59;;;-0.92;100.00
21817;BME280;13247;47.504;7.382;2023-02-12T03:26:23;99183.41;;;-0.87;100.00
21817;BME280;13247;47.504;7.382;2023-02-12T03:29:10;99182.06;;;-0.78;100.00
21817;BME280;13247;47.504;7.382;2023-02-12T03:35:23;99187.56;;;-0.90;100.00
21817;BME280;13247;47.504;7.382;2023-02-12T03:53:04;99181.22;;;-1.36;100.00
21817;BME280;13247;47.504;7.382;2023-02-12T03:55:54;99187.38;;;-1.14;100.00
21817;BME280;13247;47.504;7.382;2023-02-12T03:58:42;99190.41;;;-1.03;100.00
21817;BME280;13247;47.504;7.382;2023-02-12T04:01:29;99186.22;;;-1.01;100.00
21817;BME280;13247;47.504;7.382;2023-02-12T04:04:15;99196.59;;;-1.00;100.00
21817;BME280;13247;47.504;7.382;2023-02-12T04:07:01;99190.66;;;-0.97;100.00
21817;BME280;13247;47.504;7.382;2023-02-12T04:09:46;99193.53;;;-0.91;100.00
21817;BME280;13247;47.504;7.382;2023-02-12T04:12:38;99195.22;;;-0.92;100.00
21817;BME280;13247;47.504;7.382;2023-02-12T04:27:28;99205.66;;;-1.08;100.00
21817;BME280;13247;47.504;7.382;2023-02-12T04:30:36;99206.47;;;-1.09;100.00
21817;BME280;13247;47.504;7.382;2023-02-12T04:33:24;99208.50;;;-1.02;100.00
21817;BME280;13247;47.504;7.382;2023-02-12T04:36:33;99204.78;;;-1.08;100.00
21817;BME280;13247;47.504;7.382;2023-02-12T04:39:22;99198.22;;;-1.02;100.00
21817;BME280;13247;47.504;7.382;2023-02-12T04:42:09;99206.75;;;-1.03;100.00
21817;BME280;13247;47.504;7.382;2023-02-12T04:44:53;99201.66;;;-1.01;100.00
21817;BME280;13247;47.504;7.382;2023-02-12T04:47:38;99201.78;;;-0.98;100.00
21817;BME280;13247;47.504;7.382;2023-02-12T04:50:23;99189.88;;;-0.96;100.00
21817;BME280;13247;47.504;7.382;2023-02-12T04:53:08;99193.25;;;-0.97;100.00
21817;BME280;13247;47.504;7.382;2023-02-12T04:55:53;99197.66;;;-0.95;100.00
21817;BME280;13247;47.504;7.382;2023-02-12T04:58:40;99196.16;;;-0.90;100.00
21817;BME280;13247;47.504;7.382;2023-02-12T05:01:24;99200.47;;;-0.89;100.00
21817;BME280;13247;47.504;7.382;2023-02-12T05:04:12;99200.56;;;-0.87;100.00
21817;BME280;13247;47.504;7.382;2023-02-12T05:06:57;99205.53;;;-0.92;100.00
21817;BME280;13247;47.504;7.382;2023-02-12T05:09:42;99197.06;;;-0.89;100.00
21817;BME280;13247;47.504;7.382;2023-02-12T05:12:26;99197.78;;;-0.92;100.00
21817;BME280;13247;47.504;7.382;2023-02-12T05:15:11;99196.84;;;-0.94;100.00
21817;BME280;13247;47.504;7.382;2023-02-12T05:17:55;99195.66;;;-1.02;100.00
21817;BME280;13247;47.504;7.382;2023-02-12T05:20:40;99205.84;;;-1.03;100.00
21817;BME280;13247;47.504;7.382;2023-02-12T05:23:34;99197.94;;;-1.08;100.00
21817;BME280;13247;47.504;7.382;2023-02-12T05:26:20;99194.63;;;-1.24;100.00
21817;BME280;13247;47.504;7.382;2023-02-12T05:29:05;99197.75;;;-1.31;100.00
21817;BME280;13247;47.504;7.382;2023-02-12T05:31:50;99197.06;;;-1.27;100.00
21817;BME280;13247;47.504;7.382;2023-02-12T05:34:35;99202.44;;;-1.23;100.00
21817;BME280;13247;47.504;7.382;2023-02-12T05:37:19;99200.22;;;-1.14;100.00
21817;BME280;13247;47.504;7.382;2023-02-12T05:40:05;99205.38;;;-1.14;100.00
21817;BME280;13247;47.504;7.382;2023-02-12T05:42:50;99203.91;;;-1.09;100.00
21817;BME280;13247;47.504;7.382;2023-02-12T05:45:34;99199.97;;;-1.20;100.00
21817;BME280;13247;47.504;7.382;2023-02-12T05:48:21;99194.50;;;-1.27;100.00
21817;BME280;13247;47.504;7.382;2023-02-12T05:51:17;99194.28;;;-1.13;100.00
21817;BME280;13247;47.504;7.382;2023-02-12T05:54:05;99194.59;;;-1.05;100.00
21817;BME280;13247;47.504;7.382;2023-02-12T05:56:50;99194.22;;;-1.14;100.00
21817;BME280;13247;47.504;7.382;2023-02-12T05:59:34;99186.56;;;-1.13;100.00
21817;BME280;13247;47.504;7.382;2023-02-12T06:02:19;99188.19;;;-1.15;100.00
21817;BME280;13247;47.504;7.382;2023-02-12T06:05:04;99189.88;;;-1.15;100.00
21817;BME280;13247;47.504;7.382;2023-02-12T06:07:48;99187.63;;;-1.08;100.00
21817;BME280;13247;47.504;7.382;2023-02-12T06:10:33;99194.81;;;-1.01;100.00
21817;BME280;13247;47.504;7.382;2023-02-12T06:13:17;99189.13;;;-0.94;100.00
21817;BME280;13247;47.504;7.382;2023-02-12T06:16:02;99190.06;;;-0.92;100.00
21817;BME280;13247;47.504;7.382;2023-02-12T06:18:48;99192.75;;;-0.89;100.00
21817;BME280;13247;47.504;7.382;2023-02-12T06:21:33;99197.16;;;-0.86;100.00
21817;BME280;13247;47.504;7.382;2023-02-12T06:24:18;99195.53;;;-0.84;100.00
21817;BME280;13247;47.504;7.382;2023-02-12T06:27:03;99188.44;;;-0.90;100.00
21817;BME280;13247;47.504;7.382;2023-02-12T06:29:48;99198.41;;;-0.97;100.00
21817;BME280;13247;47.504;7.382;2023-02-12T06:32:32;99202.59;;;-0.99;100.00
21817;BME280;13247;47.504;7.382;2023-02-12T06:35:17;99198.41;;;-0.97;100.00
21817;BME280;13247;47.504;7.382;2023-02-12T06:38:01;99187.50;;;-0.92;100.00
21817;BME280;13247;47.504;7.382;2023-02-12T06:40:47;99183.50;;;-0.85;100.00
21817;BME280;13247;47.504;7.382;2023-02-12T06:43:32;99192.09;;;-0.85;100.00
21817;BME280;13247;47.504;7.382;2023-02-12T06:46:16;99194.00;;;-0.81;100.00
21817;BME280;13247;47.504;7.382;2023-02-12T06:49:01;99185.72;;;-0.93;100.00
21817;BME280;13247;47.504;7.382;2023-02-12T06:51:46;99190.06;;;-0.92;100.00
21817;BME280;13247;47.504;7.382;2023-02-12T06:54:30;99190.53;;;-0.81;100.00
21817;BME280;13247;47.504;7.382;2023-02-12T06:57:15;99188.16;;;-0.56;100.00
21817;BME280;13247;47.504;7.382;2023-02-12T07:00:00;99196.91;;;-0.52;100.00
21817;BME280;13247;47.504;7.382;2023-02-12T07:02:44;99189.69;;;-0.40;100.00
21817;BME280;13247;47.504;7.382;2023-02-12T07:05:37;99201.63;;;-0.42;100.00
21817;BME280;13247;47.504;7.382;2023-02-12T07:08:22;99195.59;;;-0.22;100.00
21817;BME280;13247;47.504;7.382;2023-02-12T07:11:07;99197.41;;;-0.20;100.00
21817;BME280;13247;47.504;7.382;2023-02-12T07:13:52;99197.94;;;-0.06;100.00
21817;BME280;13247;47.504;7.382;2023-02-12T07:16:37;99199.72;;;-0.05;100.00
21817;BME280;13247;47.504;7.382;2023-02-12T07:19:22;99202.88;;;-0.12;100.00
21817;BME280;13247;47.504;7.382;2023-02-12T07:22:07;99201.03;;;0.06;100.00
21817;BME280;13247;47.504;7.382;2023-02-12T07:24:51;99200.44;;;0.13;100.00
21817;BME280;13247;47.504;7.382;2023-02-12T07:27:36;99204.66;;;0.11;100.00
21817;BME280;13247;47.504;7.382;2023-02-12T07:30:21;99205.59;;;0.13;100.00
21817;BME280;13247;47.504;7.382;2023-02-12T07:33:06;99199.03;;;-0.01;100.00
21817;BME280;13247;47.504;7.382;2023-02-12T07:35:51;99200.91;;;0.03;100.00
21817;BME280;13247;47.504;7.382;2023-02-12T07:38:36;99198.22;;;0.22;100.00
21817;BME280;13247;47.504;7.382;2023-02-12T07:41:24;99202.97;;;0.12;100.00
21817;BME280;13247;47.504;7.382;2023-02-12T07:44:11;99200.47;;;0.35;100.00
21817;BME280;13247;47.504;7.382;2023-02-12T07:46:56;99206.44;;;0.12;100.00
21817;BME280;13247;47.504;7.382;2023-02-12T07:49:40;99204.59;;;0.10;100.00
21817;BME280;13247;47.504;7.382;2023-02-12T07:52:25;99216.50;;;0.28;100.00
21817;BME280;13247;47.504;7.382;2023-02-12T07:55:09;99205.31;;;0.28;100.00
21817;BME280;13247;47.504;7.382;2023-02-12T07:57:54;99215.75;;;0.53;100.00
21817;BME280;13247;47.504;7.382;2023-02-12T08:00:39;99207.13;;;0.30;100.00
21817;BME280;13247;47.504;7.382;2023-02-12T08:03:23;99208.31;;;0.38;100.00
21817;BME280;13247;47.504;7.382;2023-02-12T08:06:17;99208.06;;;0.32;100.00
21817;BME280;13247;47.504;7.382;2023-02-12T08:09:05;99204.34;;;0.46;100.00
21817;BME280;13247;47.504;7.382;2023-02-12T08:11:51;99200.91;;;0.69;100.00
21817;BME280;13247;47.504;7.382;2023-02-12T08:14:35;99202.47;;;0.88;100.00
21817;BME280;13247;47.504;7.382;2023-02-12T08:17:20;99200.25;;;0.99;100.00
21817;BME280;13247;47.504;7.382;2023-02-12T08:20:05;99203.19;;;1.08;100.00
21817;BME280;13247;47.504;7.382;2023-02-12T08:22:50;99201.56;;;0.88;100.00
21817;BME280;13247;47.504;7.382;2023-02-12T08:25:35;99210.31;;;0.91;100.00
21817;BME280;13247;47.504;7.382;2023-02-12T08:28:19;99201.16;;;0.99;100.00
21817;BME280;13247;47.504;7.382;2023-02-12T08:31:12;99211.06;;;1.12;100.00
21817;BME280;13247;47.504;7.382;2023-02-12T08:33:58;99213.75;;;1.14;100.00
21817;BME280;13247;47.504;7.382;2023-02-12T08:36:43;99199.94;;;1.13;100.00
21817;BME280;13247;47.504;7.382;2023-02-12T08:39:29;99204.63;;;1.25;100.00
21817;BME280;13247;47.504;7.382;2023-02-12T08:42:14;99211.38;;;1.20;100.00
21817;BME280;13247;47.504;7.382;2023-02-12T08:44:58;99202.34;;;1.32;100.00
21817;BME280;13247;47.504;7.382;2023-02-12T08:47:43;99200.13;;;1.43;100.00
21817;BME280;13247;47.504;7.382;2023-02-12T08:50:27;99191.97;;;1.56;100.00
21817;BME280;13247;47.504;7.382;2023-02-12T08:53:12;99196.13;;;1.52;100.00
21817;BME280;13247;47.504;7.382;2023-02-12T08:55:56;99192.09;;;1.60;100.00
21817;BME280;13247;47.504;7.382;2023-02-12T08:58:41;99192.25;;;1.65;100.00
21817;BME280;13247;47.504;7.382;2023-02-12T09:01:28;99194.41;;;1.78;100.00
21817;BME280;13247;47.504;7.382;2023-02-12T09:04:16;99199.50;;;2.02;100.00
21817;BME280;13247;47.504;7.382;2023-02-12T09:07:01;99195.78;;;2.20;100.00
21817;BME280;13247;47.504;7.382;2023-02-12T09:09:46;99198.00;;;2.65;100.00
21817;BME280;13247;47.504;7.382;2023-02-12T09:12:31;99190.50;;;2.74;100.00
21817;BME280;13247;47.504;7.382;2023-02-12T09:15:15;99190.28;;;2.66;100.00
21817;BME280;13247;47.504;7.382;2023-02-12T09:18:00;99184.13;;;2.92;100.00
21817;BME280;13247;47.504;7.382;2023-02-12T09:20:47;99192.31;;;3.06;100.00
21817;BME280;13247;47.504;7.382;2023-02-12T09:23:32;99183.34;;;3.26;100.00
21817;BME280;13247;47.504;7.382;2023-02-12T09:26:20;99178.88;;;3.53;100.00
21817;BME280;13247;47.504;7.382;2023-02-12T09:29:05;99183.91;;;3.80;100.00
21817;BME280;13247;47.504;7.382;2023-02-12T09:31:49;99184.50;;;4.04;100.00
21817;BME280;13247;47.504;7.382;2023-02-12T09:34:37;99177.22;;;4.27;100.00
21817;BME280;13247;47.504;7.382;2023-02-12T09:37:22;99174.41;;;4.55;100.00
21817;BME280;13247;47.504;7.382;2023-02-12T09:40:07;99176.88;;;4.88;100.00
21817;BME280;13247;47.504;7.382;2023-02-12T09:43:11;99172.91;;;5.06;100.00
21817;BME280;13247;47.504;7.382;2023-02-12T09:46:17;99168.16;;;5.30;100.00
21817;BME280;13247;47.504;7.382;2023-02-12T09:51:53;99161.84;;;5.64;100.00
21817;BME280;13247;47.504;7.382;2023-02-12T09:54:39;99158.69;;;5.82;100.00
21817;BME280;13247;47.504;7.382;2023-02-12T09:57:36;99159.69;;;5.88;100.00
21817;BME280;13247;47.504;7.382;2023-02-12T10:00:27;99168.75;;;6.13;100.00
21817;BME280;13247;47.504;7.382;2023-02-12T10:03:16;99158.97;;;5.98;100.00
21817;BME280;13247;47.504;7.382;2023-02-12T10:06:04;99162.59;;;6.06;100.00
21817;BME280;13247;47.504;7.382;2023-02-12T10:24:31;99155.22;;;6.35;100.00
21817;BME280;13247;47.504;7.382;2023-02-12T10:27:34;99146.59;;;6.39;100.00
21817;BME280;13247;47.504;7.382;2023-02-12T10:33:11;99137.38;;;6.65;100.00
21817;BME280;13247;47.504;7.382;2023-02-12T10:36:10;99134.88;;;6.71;100.00
21817;BME280;13247;47.504;7.382;2023-02-12T10:45:05;99134.88;;;6.71;100.00
21817;BME280;13247;47.504;7.382;2023-02-12T10:47:53;99131.41;;;6.72;100.00
21817;BME280;13247;47.504;7.382;2023-02-12T10:53:51;99121.28;;;6.99;100.00
21817;BME280;13247;47.504;7.382;2023-02-12T10:56:36;99122.88;;;6.84;100.00
21817;BME280;13247;47.504;7.382;2023-02-12T10:59:22;99116.84;;;6.89;100.00
21817;BME280;13247;47.504;7.382;2023-02-12T11:02:29;99112.38;;;6.79;100.00
21817;BME280;13247;47.504;7.382;2023-02-12T11:05:24;99109.88;;;6.88;100.00
21817;BME280;13247;47.504;7.382;2023-02-12T11:11:15;99103.84;;;6.92;100.00
21817;BME280;13247;47.504;7.382;2023-02-12T11:14:15;99099.81;;;7.25;100.00
21817;BME280;13247;47.504;7.382;2023-02-12T11:17:01;99091.25;;;7.36;100.00
21817;BME280;13247;47.504;7.382;2023-02-12T11:20:22;99090.31;;;7.30;100.00
21817;BME280;13247;47.504;7.382;2023-02-12T11:23:21;99083.53;;;7.45;100.00
21817;BME280;13247;47.504;7.382;2023-02-12T11:26:22;99086.88;;;7.34;100.00
21817;BME280;13247;47.504;7.382;2023-02-12T11:29:22;99080.81;;;7.38;100.00
21817;BME280;13247;47.504;7.382;2023-02-12T11:32:20;99070.28;;;7.27;100.00
21817;BME280;13247;47.504;7.382;2023-02-12T11:35:22;99064.41;;;7.51;100.00
21817;BME280;13247;47.504;7.382;2023-02-12T11:38:25;99065.50;;;7.81;100.00
21817;BME280;13247;47.504;7.382;2023-02-12T11:41:31;99066.28;;;7.64;100.00
21817;BME280;13247;47.504;7.382;2023-02-12T11:44:26;99064.56;;;7.69;100.00
21817;BME280;13247;47.504;7.382;2023-02-12T11:47:19;99055.03;;;7.75;100.00
21817;BME280;13247;47.504;7.382;2023-02-12T11:50:17;99057.72;;;7.86;100.00
21817;BME280;13247;47.504;7.382;2023-02-12T11:53:08;99047.41;;;8.04;100.00
21817;BME280;13247;47.504;7.382;2023-02-12T11:56:04;99045.66;;;8.03;100.00
21817;BME280;13247;47.504;7.382;2023-02-12T11:58:51;99042.19;;;8.04;100.00
21817;BME280;13247;47.504;7.382;2023-02-12T12:01:37;99049.97;;;7.98;100.00
21817;BME280;13247;47.504;7.382;2023-02-12T12:04:23;99043.00;;;7.96;100.00
21817;BME280;13247;47.504;7.382;2023-02-12T12:07:38;99043.94;;;8.10;100.00
21817;BME280;13247;47.504;7.382;2023-02-12T12:10:30;99033.59;;;8.23;100.00
21817;BME280;13247;47.504;7.382;2023-02-12T12:13:23;99027.41;;;8.15;100.00
21817;BME280;13247;47.504;7.382;2023-02-12T12:16:18;99024.94;;;8.33;100.00
21817;BME280;13247;47.504;7.382;2023-02-12T12:19:33;99026.69;;;8.31;100.00
21817;BME280;13247;47.504;7.382;2023-02-12T12:23:06;99016.34;;;8.58;100.00
21817;BME280;13247;47.504;7.382;2023-02-12T12:26:03;99007.56;;;8.38;100.00
21817;BME280;13247;47.504;7.382;2023-02-12T12:32:15;99006.72;;;8.53;100.00
21817;BME280;13247;47.504;7.382;2023-02-12T12:35:02;98999.78;;;8.68;100.00
21817;BME280;13247;47.504;7.382;2023-02-12T12:37:50;99000.72;;;8.83;100.00
21817;BME280;13247;47.504;7.382;2023-02-12T12:40:55;98992.91;;;9.07;100.00
21817;BME280;13247;47.504;7.382;2023-02-12T12:59:40;99001.66;;;9.28;100.00
21817;BME280;13247;47.504;7.382;2023-02-12T13:05:53;98988.56;;;9.33;100.00
21817;BME280;13247;47.504;7.382;2023-02-12T13:15:44;98985.91;;;9.42;100.00
21817;BME280;13247;47.504;7.382;2023-02-12T13:21:58;98982.47;;;9.35;100.00
21817;BME280;13247;47.504;7.382;2023-02-12T13:25:04;98978.09;;;9.45;100.00
21817;BME280;13247;47.504;7.382;2023-02-12T13:27:52;98982.34;;;9.97;100.00
21817;BME280;13247;47.504;7.382;2023-02-12T13:30:43;98973.66;;;9.76;100.00
21817;BME280;13247;47.504;7.382;2023-02-12T13:33:42;98972.78;;;9.74;100.00
21817;BME280;13247;47.504;7.382;2023-02-12T13:36:28;98980.69;;;9.52;100.00
21817;BME280;13247;47.504;7.382;2023-02-12T13:39:29;98981.56;;;9.32;100.00
21817;BME280;13247;47.504;7.382;2023-02-12T13:57:24;98973.72;;;9.27;100.00
21817;BME280;13247;47.504;7.382;2023-02-12T14:03:36;98994.66;;;9.08;100.00
21817;BME280;13247;47.504;7.382;2023-02-12T14:06:21;98986.81;;;9.39;100.00
21817;BME280;13247;47.504;7.382;2023-02-12T14:09:10;98987.69;;;9.37;100.00
21817;BME280;13247;47.504;7.382;2023-02-12T14:11:55;98986.78;;;9.44;100.00
21817;BME280;13247;47.504;7.382;2023-02-12T14:14:43;98980.69;;;9.42;100.00
21817;BME280;13247;47.504;7.382;2023-02-12T14:23:27;98983.31;;;9.09;100.00
21817;BME280;13247;47.504;7.382;2023-02-12T14:26:24;98988.53;;;9.13;100.00
21817;BME280;13247;47.504;7.382;2023-02-12T14:29:18;98985.06;;;9.25;100.00
21817;BME280;13247;47.504;7.382;2023-02-12T14:35:32;98992.03;;;9.21;100.00
21817;BME280;13247;47.504;7.382;2023-02-12T14:41:28;98979.72;;;10.15;100.00
21817;BME280;13247;47.504;7.382;2023-02-12T14:50:28;98973.63;;;10.00;97.46
21817;BME280;13247;47.504;7.382;2023-02-12T14:53:30;98988.56;;;9.18;100.00
21817;BME280;13247;47.504;7.382;2023-02-12T14:56:21;98976.28;;;9.65;100.00
21817;BME280;13247;47.504;7.382;2023-02-12T14:59:16;98977.13;;;9.96;100.00
21817;BME280;13247;47.504;7.382;2023-02-12T15:02:04;98978.91;;;9.73;100.00
21817;BME280;13247;47.504;7.382;2023-02-12T15:04:52;98989.41;;;9.38;100.00
21817;BME280;13247;47.504;7.382;2023-02-12T15:07:43;98987.66;;;9.50;100.00
21817;BME280;13247;47.504;7.382;2023-02-12T15:10:48;98983.28;;;9.77;100.00
21817;BME280;13247;47.504;7.382;2023-02-12T15:13:59;98986.81;;;9.45;100.00
21817;BME280;13247;47.504;7.382;2023-02-12T15:17:19;98981.56;;;9.47;100.00
21817;BME280;13247;47.504;7.382;2023-02-12T15:20:34;98985.94;;;9.65;100.00
21817;BME280;13247;47.504;7.382;2023-02-12T15:23:35;98988.56;;;9.39;100.00
21817;BME280;13247;47.504;7.382;2023-02-12T15:26:23;98982.47;;;9.35;100.00
21817;BME280;13247;47.504;7.382;2023-02-12T15:30:01;98985.94;;;9.19;100.00
21817;BME280;13247;47.504;7.382;2023-02-12T15:32:39;98983.34;;;9.27;100.00
21817;BME280;13247;47.504;7.382;2023-02-12T15:35:32;98991.16;;;9.03;100.00
21817;BME280;13247;47.504;7.382;2023-02-12T15:38:21;98987.66;;;9.17;100.00
21817;BME280;13247;47.504;7.382;2023-02-12T15:41:06;98983.31;;;9.01;100.00
21817;BME280;13247;47.504;7.382;2023-02-12T15:43:52;98989.41;;;9.12;100.00
21817;BME280;13247;47.504;7.382;2023-02-12T15:46:36;98988.53;;;9.03;100.00
21817;BME280;13247;47.504;7.382;2023-02-12T15:49:27;98989.38;;;8.87;100.00
21817;BME280;13247;47.504;7.382;2023-02-12T15:52:16;98990.28;;;9.07;100.00
21817;BME280;13247;47.504;7.382;2023-02-12T15:55:04;98993.75;;;8.94;98.31
21817;BME280;13247;47.504;7.382;2023-02-12T15:57:56;98995.47;;;8.74;100.00
21817;BME280;13247;47.504;7.382;2023-02-12T16:00:42;98993.72;;;8.82;98.37
21817;BME280;13247;47.504;7.382;2023-02-12T16:03:36;98991.97;;;8.65;98.79
21817;BME280;13247;47.504;7.382;2023-02-12T16:06:22;98995.47;;;8.74;95.32
21817;BME280;13247;47.504;7.382;2023-02-12T16:09:14;98997.13;;;8.44;96.47
21817;BME280;13247;47.504;7.382;2023-02-12T16:12:03;98996.28;;;8.59;98.97
21817;BME280;13247;47.504;7.382;2023-02-12T16:14:55;98998.94;;;8.76;97.79
21817;BME280;13247;47.504;7.382;2023-02-12T16:17:46;99005.75;;;8.25;100.00
21817;BME280;13247;47.504;7.382;2023-02-12T16:20:32;99004.66;;;7.93;100.00
21817;BME280;13247;47.504;7.382;2023-02-12T16:23:17;99001.19;;;7.97;100.00
21817;BME280;13247;47.504;7.382;2023-02-12T16:26:04;99009.78;;;7.75;100.00
21817;BME280;13247;47.504;7.382;2023-02-12T16:28:54;99004.53;;;7.70;100.00
21817;BME280;13247;47.504;7.382;2023-02-12T16:31:52;98999.13;;;7.45;100.00
21817;BME280;13247;47.504;7.382;2023-02-12T16:34:37;98999.69;;;7.10;100.00
21817;BME280;13247;47.504;7.382;2023-02-12T16:37:50;99009.47;;;7.34;100.00
21817;BME280;13247;47.504;7.382;2023-02-12T16:40:38;99002.41;;;7.21;100.00
21817;BME280;13247;47.504;7.382;2023-02-12T16:43:25;99003.78;;;6.84;100.00
21817;BME280;13247;47.504;7.382;2023-02-12T16:46:11;99001.88;;;6.67;100.00
21817;BME280;13247;47.504;7.382;2023-02-12T16:48:58;99009.09;;;6.93;100.00
21817;BME280;13247;47.504;7.382;2023-02-12T16:51:44;99002.88;;;6.81;100.00
21817;BME280;13247;47.504;7.382;2023-02-12T16:54:34;99004.44;;;6.62;100.00
21817;BME280;13247;47.504;7.382;2023-02-12T16:57:19;99004.28;;;6.50;100.00
21817;BME280;13247;47.504;7.382;2023-02-12T17:00:05;99008.50;;;6.41;100.00
21817;BME280;13247;47.504;7.382;2023-02-12T17:02:54;99005.78;;;6.31;100.00
21817;BME280;13247;47.504;7.382;2023-02-12T17:05:39;99009.13;;;6.18;100.00
21817;BME280;13247;47.504;7.382;2023-02-12T17:08:26;99005.63;;;6.18;100.00
21817;BME280;13247;47.504;7.382;2023-02-12T17:11:11;98998.56;;;6.08;100.00
21817;BME280;13247;47.504;7.382;2023-02-12T17:13:57;99008.16;;;6.13;100.00
21817;BME280;13247;47.504;7.382;2023-02-12T17:16:42;99010.78;;;6.15;100.00
21817;BME280;13247;47.504;7.382;2023-02-12T17:19:27;99019.25;;;5.42;100.00
21817;BME280;13247;47.504;7.382;2023-02-12T17:22:22;99018.44;;;4.95;100.00
21817;BME280;13247;47.504;7.382;2023-02-12T17:25:09;99023.53;;;4.88;100.00
21817;BME280;13247;47.504;7.382;2023-02-12T17:27:55;99027.41;;;5.12;100.00
21817;BME280;13247;47.504;7.382;2023-02-12T17:30:40;99022.47;;;5.27;100.00
21817;BME280;13247;47.504;7.382;2023-02-12T17:33:25;99021.88;;;5.43;100.00
21817;BME280;13247;47.504;7.382;2023-02-12T17:36:10;99020.56;;;5.73;100.00
21817;BME280;13247;47.504;7.382;2023-02-12T17:38:55;99027.16;;;5.49;100.00